Time;durP1;ratioP1;P1;durP2;ratioP2;P2;SDS_P1;SDS_P2;PMS_P1;PMS_P2;Temp;Humidity;BMP_temperature;BMP_pressure;BME280_temperature;BME280_humidity;BME280_pressure;Samples;Min_cycle;Max_cycle;Signal;HPM_P1;HPM_P2
2021/05/27 00:00:44;;;;;;;1.40;1.03;;;;;;;7.09;82.20;96629.81;3487983;40;20465;-70
2021/05/27 00:03:12;;;;;;;2.87;1.27;;;;;;;7.02;82.77;96631.09;3485233;41;20465;-70
2021/05/27 00:05:39;;;;;;;4.93;1.40;;;;;;;7.10;82.32;96636.72;3486878;40;20565;-69
2021/05/27 00:08:07;;;;;;;4.60;1.40;;;;;;;7.01;82.08;96638.03;3487736;40;20491;-70
2021/05/27 00:10:36;;;;;;;2.50;1.57;;;;;;;7.07;82.31;96629.06;3488094;40;20809;-72
2021/05/27 00:13:04;;;;;;;3.10;1.37;;;;;;;7.08;82.13;96625.53;3486721;41;20481;-71
2021/05/27 00:15:38;;;;;;;7.03;1.70;;;;;;;7.09;82.05;96632.41;3487434;40;20748;-70
2021/05/27 00:18:06;;;;;;;3.27;1.00;;;;;;;7.10;81.97;96634.09;3488360;40;20550;-70
2021/05/27 00:20:33;;;;;;;1.83;0.97;;;;;;;7.11;81.89;96625.34;3486675;40;21169;-71
2021/05/27 00:23:01;;;;;;;8.90;1.67;;;;;;;7.07;82.66;96631.66;3487239;41;20457;-69
2021/05/27 00:25:29;;;;;;;5.53;1.27;;;;;;;7.06;82.32;96632.59;3486587;40;20508;-70
2021/05/27 00:27:57;;;;;;;2.03;1.10;;;;;;;7.06;81.86;96628.22;3487686;40;20590;-72
2021/05/27 00:30:26;;;;;;;1.33;1.20;;;;;;;7.06;82.16;96623.00;3488131;40;20464;-70
2021/05/27 00:32:53;;;;;;;1.80;1.37;;;;;;;7.03;82.03;96630.16;3477550;41;21171;-70
2021/05/27 00:35:21;;;;;;;1.73;1.10;;;;;;;7.10;81.97;96628.91;3476705;41;20573;-71
2021/05/27 00:37:51;;;;;;;2.50;1.47;;;;;;;7.07;82.39;96629.06;3487059;41;20925;-70
2021/05/27 00:40:19;;;;;;;2.83;1.27;;;;;;;6.88;82.55;96601.41;3486656;40;20496;-71
2021/05/27 00:42:51;;;;;;;4.10;1.53;;;;;;;7.04;82.77;96629.25;3487004;40;20472;-70
2021/05/27 00:45:19;;;;;;;4.90;1.63;;;;;;;7.04;82.40;96634.44;3486365;41;20451;-70
2021/05/27 00:47:53;;;;;;;3.17;1.50;;;;;;;6.96;83.03;96637.47;3486457;40;20868;-70
2021/05/27 00:50:23;;;;;;;1.97;1.57;;;;;;;6.98;83.00;96632.16;3485586;41;20861;-69
2021/05/27 00:52:55;;;;;;;6.70;1.63;;;;;;;6.97;83.14;96640.91;3486479;40;20469;-70
2021/05/27 00:55:24;;;;;;;9.33;3.47;;;;;;;6.94;83.27;96634.09;3486187;40;21109;-70
2021/05/27 00:57:54;;;;;;;3.53;2.07;;;;;;;6.95;83.47;96643.56;3486295;40;20716;-71
2021/05/27 01:00:25;;;;;;;8.33;1.30;;;;;;;6.92;83.61;96641.16;3486160;41;20955;-70
2021/05/27 01:02:54;;;;;;;3.80;1.30;;;;;;;6.91;83.73;96645.50;3487267;40;20496;-70
2021/05/27 01:05:22;;;;;;;1.73;1.23;;;;;;;6.92;83.55;96646.34;3487248;40;20753;-71
2021/05/27 01:07:51;;;;;;;1.70;1.30;;;;;;;6.83;83.70;96633.81;3486226;40;20779;-70
2021/05/27 01:10:18;;;;;;;2.47;1.30;;;;;;;6.97;83.57;96653.91;3486075;40;20481;-70
2021/05/27 01:12:46;;;;;;;4.97;1.50;;;;;;;6.99;83.34;96652.06;3486526;40;20894;-72
2021/05/27 01:15:29;;;;;;;2.17;1.40;;;;;;;6.97;83.44;96651.31;3484495;41;20495;-70
2021/05/27 01:17:59;;;;;;;4.80;1.40;;;;;;;7.00;83.61;96654.59;3486473;41;20998;-71
2021/05/27 01:20:27;;;;;;;2.07;1.27;;;;;;;7.00;83.35;96651.13;3486582;40;20445;-70
2021/05/27 01:22:56;;;;;;;3.30;1.10;;;;;;;7.00;83.45;96658.94;3487994;41;20446;-70
2021/05/27 01:25:23;;;;;;;4.07;1.73;;;;;;;7.02;83.33;96651.91;3487652;40;20564;-70
2021/05/27 01:27:51;;;;;;;4.50;1.40;;;;;;;7.01;83.47;96655.44;3485804;40;20508;-69
2021/05/27 01:30:19;;;;;;;4.20;1.53;;;;;;;6.95;83.07;96647.94;3486247;40;20488;-70
2021/05/27 01:32:50;;;;;;;2.13;1.43;;;;;;;6.99;83.70;96663.31;3485510;40;21493;-70
2021/05/27 01:35:20;;;;;;;3.00;1.70;;;;;;;6.95;84.06;96667.00;3485402;41;20786;-70
2021/05/27 01:37:54;;;;;;;7.27;1.40;;;;;;;6.98;83.99;96663.38;3486231;40;20469;-70
2021/05/27 01:40:24;;;;;;;5.43;1.80;;;;;;;6.95;83.80;96663.56;3487715;40;20750;-70
2021/05/27 01:42:54;;;;;;;7.03;1.40;;;;;;;6.88;83.98;96652.63;3477376;41;20672;-70
2021/05/27 01:45:22;;;;;;;4.47;1.37;;;;;;;6.95;83.97;96667.00;3477779;41;20822;-70
2021/05/27 01:47:54;;;;;;;2.73;1.50;;;;;;;6.93;83.76;96661.88;3486420;40;20943;-70
2021/05/27 01:50:21;;;;;;;4.37;1.73;;;;;;;7.02;82.93;96657.97;3487465;40;20940;-69
2021/05/27 01:52:49;;;;;;;3.80;1.57;;;;;;;7.06;83.43;96662.06;3486610;40;20504;-71
2021/05/27 01:55:17;;;;;;;6.10;1.23;;;;;;;7.05;83.35;96652.56;3486958;40;21113;-71
2021/05/27 01:57:45;;;;;;;1.43;1.10;;;;;;;7.02;83.23;96668.38;3487070;40;20492;-70
2021/05/27 02:00:14;;;;;;;4.03;1.40;;;;;;;7.04;83.33;96663.09;3485635;41;20580;-70
2021/05/27 02:03:06;;;;;;;4.33;1.47;;;;;;;7.06;83.05;96658.63;3485556;40;20727;-70
2021/05/27 02:05:34;;;;;;;5.50;1.77;;;;;;;7.04;83.33;96663.09;3486169;40;20821;-70
2021/05/27 02:08:02;;;;;;;4.30;1.10;;;;;;;7.05;83.40;96664.75;3485974;40;20446;-70
2021/05/27 02:10:30;;;;;;;4.93;1.50;;;;;;;6.99;83.20;96652.06;3487125;40;21025;-70
2021/05/27 02:12:58;;;;;;;1.77;1.23;;;;;;;7.08;83.19;96662.00;3484979;41;20501;-70
2021/05/27 02:15:26;;;;;;;2.53;1.90;;;;;;;7.03;83.31;96656.19;3485805;40;20489;-70
2021/05/27 02:17:53;;;;;;;6.53;1.90;;;;;;;7.03;83.43;96664.00;3486022;41;20500;-72
2021/05/27 02:20:21;;;;;;;3.70;1.90;;;;;;;7.09;83.10;96666.28;3486639;40;20960;-68
2021/05/27 02:22:48;;;;;;;1.83;1.10;;;;;;;7.06;83.30;96674.25;3485589;40;21149;-69
2021/05/27 02:25:16;;;;;;;2.13;1.67;;;;;;;7.07;82.96;96673.31;3486960;40;20707;-70
2021/05/27 02:27:43;;;;;;;4.17;1.20;;;;;;;7.06;83.24;96663.84;3485817;40;20892;-69
2021/05/27 02:30:12;;;;;;;2.03;1.70;;;;;;;7.07;83.30;96662.91;3486685;40;20560;-70
2021/05/27 02:32:40;;;;;;;1.30;1.20;;;;;;;7.08;83.49;96664.59;3486494;40;20871;-69
2021/05/27 02:35:08;;;;;;;11.63;1.40;;;;;;;7.09;83.62;96666.28;3485961;40;20810;-70
2021/05/27 02:37:36;;;;;;;7.43;1.50;;;;;;;7.04;83.96;96676.13;3479161;40;20552;-69
2021/05/27 02:40:06;;;;;;;5.13;1.27;;;;;;;7.06;83.95;96675.09;3485398;41;20834;-69
2021/05/27 02:42:34;;;;;;;7.33;1.40;;;;;;;7.01;83.80;96676.25;3485584;40;20777;-69
2021/05/27 02:45:02;;;;;;;8.17;1.57;;;;;;;6.96;83.92;96675.66;3485787;40;20786;-69
2021/05/27 02:47:30;;;;;;;3.97;1.60;;;;;;;6.90;84.01;96674.25;3486042;40;20485;-70
2021/05/27 02:49:58;;;;;;;9.53;1.73;;;;;;;6.84;84.14;96675.41;3486244;41;20473;-70
2021/05/27 02:52:26;;;;;;;3.23;1.53;;;;;;;6.84;84.16;96675.41;3486227;40;20873;-70
2021/05/27 02:54:53;;;;;;;1.30;1.13;;;;;;;6.81;84.07;96670.34;3486501;41;20477;-69
2021/05/27 02:57:21;;;;;;;6.63;1.83;;;;;;;6.77;84.33;96674.03;3486486;40;20555;-69
2021/05/27 02:59:48;;;;;;;3.17;1.70;;;;;;;6.75;84.45;96667.22;3486037;41;21582;-69
2021/05/27 03:02:15;;;;;;;2.87;1.63;;;;;;;6.70;84.42;96678.72;3486511;40;20468;-69
2021/05/27 03:04:44;;;;;;;4.47;1.90;;;;;;;6.63;84.85;96679.97;3486503;41;20503;-70
2021/05/27 03:07:14;;;;;;;1.90;1.70;;;;;;;6.59;85.00;96670.63;3483807;40;20772;-71
2021/05/27 03:09:41;;;;;;;2.47;1.50;;;;;;;6.51;85.33;96673.63;3485654;40;20449;-70
2021/05/27 03:12:09;;;;;;;2.13;1.80;;;;;;;6.46;85.58;96667.81;3486246;40;20780;-70
2021/05/27 03:14:37;;;;;;;3.03;1.73;;;;;;;6.42;85.68;96673.25;3485524;40;20544;-70
2021/05/27 03:17:04;;;;;;;4.27;2.40;;;;;;;6.36;86.12;96679.59;3485238;40;20848;-71
2021/05/27 03:19:32;;;;;;;2.10;1.80;;;;;;;6.30;86.18;96672.13;3486575;40;20927;-71
2021/05/27 03:22:01;;;;;;;4.30;2.17;;;;;;;6.28;86.22;96672.19;3485659;40;20524;-72
2021/05/27 03:24:28;;;;;;;3.30;1.90;;;;;;;6.27;86.26;96664.44;3485721;41;20810;-69
2021/05/27 03:26:56;;;;;;;2.50;2.07;;;;;;;6.26;86.32;96665.38;3485606;40;20489;-69
2021/05/27 03:29:30;;;;;;;6.13;2.10;;;;;;;6.24;86.44;96662.84;3487242;41;20866;-70
2021/05/27 03:31:57;;;;;;;6.43;2.10;;;;;;;6.20;86.52;96665.69;3481748;40;20572;-70
2021/05/27 03:34:25;;;;;;;2.20;2.00;;;;;;;6.21;86.69;96664.75;3490806;40;20822;-71
2021/05/27 03:36:53;;;;;;;5.17;2.27;;;;;;;6.16;86.49;96667.59;3481772;40;20900;-70
2021/05/27 03:39:21;;;;;;;2.27;1.80;;;;;;;6.14;86.27;96667.69;3487798;40;20756;-71
2021/05/27 03:41:52;;;;;;;5.10;1.70;;;;;;;6.14;85.91;96672.88;3487076;40;20477;-69
2021/05/27 03:44:20;;;;;;;3.73;2.10;;;;;;;6.09;86.08;96666.22;3489490;40;20929;-70
2021/05/27 03:46:58;;;;;;;4.60;1.80;;;;;;;6.07;85.97;96655.88;3488043;40;20978;-70
2021/05/27 03:49:26;;;;;;;6.63;2.40;;;;;;;6.04;85.98;96657.81;3485849;41;20713;-71
2021/05/27 03:51:53;;;;;;;3.80;1.60;;;;;;;6.11;85.44;96665.22;3486593;40;20481;-70
2021/05/27 03:54:22;;;;;;;4.00;1.83;;;;;;;6.06;85.68;96667.22;3486965;40;20801;-70
2021/05/27 03:56:52;;;;;;;4.40;1.83;;;;;;;6.01;85.75;96665.75;3487124;40;20480;-71
2021/05/27 04:02:05;;;;;;;3.20;1.83;;;;;;;6.04;85.53;96661.25;3488844;40;20928;-70
2021/05/27 04:07:21;;;;;;;2.20;1.70;;;;;;;6.03;85.87;96664.75;3486591;40;20594;-71
2021/05/27 04:09:49;;;;;;;6.47;1.80;;;;;;;6.03;85.87;96672.56;3488184;41;20941;-69
2021/05/27 04:15:21;;;;;;;6.03;2.30;;;;;;;5.89;86.24;96680.16;3488245;41;20492;-69
2021/05/27 04:17:57;;;;;;;2.07;1.73;;;;;;;5.96;86.11;96692.00;3487000;40;20901;-69
2021/05/27 04:20:26;;;;;;;5.57;1.93;;;;;;;6.07;85.95;96684.50;3490804;40;20494;-70
2021/05/27 04:22:54;;;;;;;6.20;2.53;;;;;;;6.14;85.32;96680.69;3485830;41;20521;-69
2021/05/27 04:25:24;;;;;;;2.17;1.97;;;;;;;5.93;85.49;96650.50;3487535;40;20457;-72
2021/05/27 04:27:52;;;;;;;2.77;2.10;;;;;;;6.21;85.18;96689.00;3485755;40;20796;-71
2021/05/27 04:30:21;;;;;;;5.60;2.27;;;;;;;6.18;85.25;96686.56;3487119;40;20781;-70
2021/05/27 04:32:54;;;;;;;6.07;1.83;;;;;;;6.22;85.28;96695.06;3486489;40;20923;-72
2021/05/27 04:35:24;;;;;;;4.17;2.20;;;;;;;6.13;85.44;96686.81;3487027;40;20865;-69
2021/05/27 04:37:57;;;;;;;3.87;1.80;;;;;;;6.04;85.90;96684.66;3488255;40;20508;-69
2021/05/27 04:40:26;;;;;;;6.33;2.30;;;;;;;6.12;85.89;96692.09;3488952;40;20846;-70
2021/05/27 04:42:54;;;;;;;13.70;2.57;;;;;;;6.21;85.53;96696.81;3486338;41;20755;-71
2021/05/27 04:45:22;;;;;;;4.00;2.33;;;;;;;6.24;85.19;96680.22;3487620;40;20536;-71
2021/05/27 04:47:50;;;;;;;3.73;2.67;;;;;;;6.49;84.68;96700.66;3487253;40;20855;-71
2021/05/27 04:50:19;;;;;;;2.10;1.70;;;;;;;6.55;84.04;96705.53;3487464;40;20877;-71
2021/05/27 04:52:46;;;;;;;3.33;1.60;;;;;;;6.47;83.77;96689.47;3484894;40;20872;-70
2021/05/27 04:55:15;;;;;;;3.70;1.80;;;;;;;6.64;83.36;96702.44;3489747;41;20568;-71
2021/05/27 04:57:44;;;;;;;2.33;1.90;;;;;;;6.75;82.70;96707.09;3486786;40;20559;-71
2021/05/27 05:00:14;;;;;;;4.13;1.77;;;;;;;6.87;82.56;96706.47;3487599;40;20737;-71
2021/05/27 05:02:42;;;;;;;4.30;1.77;;;;;;;6.87;82.23;96716.88;3486875;40;20821;-69
2021/05/27 05:05:11;;;;;;;3.80;1.60;;;;;;;6.92;81.64;96719.25;3487035;40;20954;-71
2021/05/27 05:07:41;;;;;;;4.17;1.60;;;;;;;7.02;81.82;96725.66;3485926;40;20469;-70
2021/05/27 05:10:10;;;;;;;3.97;1.77;;;;;;;7.11;81.54;96727.78;3489264;40;20453;-71
2021/05/27 05:12:45;;;;;;;3.30;1.97;;;;;;;7.22;81.16;96729.81;3486222;40;21114;-70
2021/05/27 05:15:18;;;;;;;6.47;2.13;;;;;;;7.37;80.36;96737.72;3486965;40;20579;-69
2021/05/27 05:17:50;;;;;;;11.80;2.00;;;;;;;7.47;79.95;96741.53;3485899;40;20477;-69
2021/05/27 05:20:18;;;;;;;3.00;1.57;;;;;;;7.62;79.03;96735.47;3486388;40;20893;-70
2021/05/27 05:22:46;;;;;;;1.87;1.67;;;;;;;7.73;78.94;96743.53;3486380;40;20476;-70
2021/05/27 05:25:14;;;;;;;4.77;1.63;;;;;;;7.83;78.72;96737.84;3487925;40;20476;-69
2021/05/27 05:27:43;;;;;;;3.63;1.50;;;;;;;7.88;77.15;96741.03;3488004;40;21016;-72
2021/05/27 05:30:13;;;;;;;6.17;1.60;;;;;;;8.04;76.74;96736.63;3484998;40;20528;-70
2021/05/27 05:32:42;;;;;;;2.10;1.50;;;;;;;8.17;75.59;96752.41;3485406;40;20897;-69
2021/05/27 05:35:12;;;;;;;4.43;1.53;;;;;;;8.25;74.52;96749.38;3486871;40;20909;-69
2021/05/27 05:37:40;;;;;;;2.70;1.60;;;;;;;8.19;73.73;96734.91;3485851;40;20465;-70
2021/05/27 05:40:11;;;;;;;5.40;1.47;;;;;;;8.31;73.63;96749.00;3488478;40;20469;-71
2021/05/27 05:42:41;;;;;;;4.40;1.47;;;;;;;8.48;73.90;96746.31;3491040;40;20897;-72
2021/05/27 05:45:11;;;;;;;1.53;1.17;;;;;;;8.54;73.16;96742.50;3487080;40;20480;-71
2021/05/27 05:47:38;;;;;;;1.97;1.00;;;;;;;8.41;70.69;96745.00;3486872;40;20862;-71
2021/05/27 05:50:08;;;;;;;7.00;1.60;;;;;;;8.44;71.02;96738.75;3487195;41;20881;-71
2021/05/27 05:52:36;;;;;;;1.50;0.90;;;;;;;8.54;70.79;96742.50;3485341;40;20507;-72
2021/05/27 05:55:05;;;;;;;2.63;1.00;;;;;;;8.64;70.20;96746.25;3486725;41;20477;-71
2021/05/27 05:57:33;;;;;;;2.67;1.30;;;;;;;8.74;69.67;96745.72;3487058;40;20788;-73
2021/05/27 06:00:01;;;;;;;3.27;1.60;;;;;;;8.81;69.66;96740.03;3488580;41;20955;-71
2021/05/27 06:02:28;;;;;;;2.93;1.00;;;;;;;8.99;69.33;96724.22;3486144;40;20866;-69
2021/05/27 06:04:56;;;;;;;3.40;1.23;;;;;;;9.06;69.13;96736.81;3486102;41;20556;-70
2021/05/27 06:07:24;;;;;;;3.07;1.10;;;;;;;9.01;67.51;96738.00;3486516;40;20457;-71
2021/05/27 06:09:52;;;;;;;3.13;1.00;;;;;;;9.03;68.63;96730.94;3486940;40;20559;-70
2021/05/27 06:12:19;;;;;;;2.77;1.30;;;;;;;8.98;69.48;96727.75;3486406;40;20583;-71
2021/05/27 06:14:46;;;;;;;6.80;1.30;;;;;;;9.19;69.60;96741.28;3486371;40;20445;-70
2021/05/27 06:17:14;;;;;;;2.33;1.00;;;;;;;9.13;68.62;96745.09;3485011;40;20925;-70
2021/05/27 06:19:41;;;;;;;6.43;1.93;;;;;;;8.99;68.40;96750.31;3486772;40;21003;-69
2021/05/27 06:22:09;;;;;;;4.23;1.73;;;;;;;9.03;68.04;96751.81;3486385;40;20570;-70
2021/05/27 06:24:37;;;;;;;1.70;1.00;;;;;;;9.05;67.18;96765.63;3487103;40;20484;-71
2021/05/27 06:27:05;;;;;;;2.70;1.13;;;;;;;9.06;67.71;96747.25;3484834;40;20521;-70
2021/05/27 06:29:33;;;;;;;2.53;1.30;;;;;;;9.24;67.36;96750.53;3488308;40;20548;-70
2021/05/27 06:32:00;;;;;;;7.63;1.57;;;;;;;9.22;67.05;96755.00;3485817;40;20519;-73
2021/05/27 06:34:28;;;;;;;2.83;1.23;;;;;;;9.77;66.18;96768.22;3486796;40;20564;-71
2021/05/27 06:36:55;;;;;;;3.00;1.10;;;;;;;9.84;65.06;96764.25;3485042;40;20465;-70
2021/05/27 06:39:24;;;;;;;7.50;1.50;;;;;;;9.94;64.49;96767.13;3486390;41;20791;-71
2021/05/27 06:41:54;;;;;;;4.33;1.10;;;;;;;9.89;63.82;96776.13;3486481;40;20818;-70
2021/05/27 06:44:21;;;;;;;2.70;1.30;;;;;;;10.23;63.73;96771.38;3488247;40;20445;-71
2021/05/27 06:46:48;;;;;;;2.77;1.20;;;;;;;10.46;63.25;96766.44;3485809;40;21094;-70
2021/05/27 06:49:16;;;;;;;2.10;1.27;;;;;;;10.18;63.08;96772.59;3485911;41;20482;-71
2021/05/27 06:51:45;;;;;;;1.67;1.30;;;;;;;10.33;62.64;96769.03;3485729;40;20494;-71
2021/05/27 06:54:16;;;;;;;4.03;1.17;;;;;;;10.51;63.06;96774.00;3486481;40;20468;-70
2021/05/27 06:56:45;;;;;;;2.90;1.40;;;;;;;10.81;62.36;96765.88;3493459;40;20885;-71
2021/05/27 06:59:14;;;;;;;8.60;2.17;;;;;;;10.90;62.09;96767.88;3499934;40;20496;-74
2021/05/27 07:01:41;;;;;;;2.87;1.40;;;;;;;10.48;62.18;96770.63;3496145;40;20469;-70
2021/05/27 07:04:10;;;;;;;3.60;1.77;;;;;;;10.40;62.04;96772.91;3496657;40;20475;-70
2021/05/27 07:06:38;;;;;;;3.93;1.80;;;;;;;10.45;63.12;96777.84;3496146;40;20469;-71
2021/05/27 07:09:06;;;;;;;9.17;4.00;;;;;;;10.74;62.62;96768.09;3494718;41;20921;-71
2021/05/27 07:11:34;;;;;;;4.00;0.90;;;;;;;10.99;61.59;96774.28;3496672;40;20898;-71
2021/05/27 07:14:03;;;;;;;2.50;1.20;;;;;;;10.84;61.62;96773.53;3497050;40;20575;-70
2021/05/27 07:16:33;;;;;;;2.00;1.20;;;;;;;10.62;61.86;96769.75;3497311;40;20488;-70
2021/05/27 07:19:01;;;;;;;3.63;1.20;;;;;;;11.07;62.16;96770.22;3497134;40;20468;-70
2021/05/27 07:21:29;;;;;;;7.07;1.10;;;;;;;11.18;60.78;96774.69;3494526;40;20755;-73
2021/05/27 07:23:58;;;;;;;4.40;1.20;;;;;;;11.61;59.93;96768.28;3496816;41;20854;-71
2021/05/27 07:26:26;;;;;;;3.50;1.20;;;;;;;11.60;58.70;96780.56;3494878;40;20561;-73
2021/05/27 07:28:54;;;;;;;3.23;1.50;;;;;;;11.14;59.82;96775.03;3496933;40;20461;-70
2021/05/27 07:31:23;;;;;;;2.63;1.30;;;;;;;10.27;61.60;96771.97;3493556;40;20471;-71
2021/05/27 07:33:58;;;;;;;1.77;1.10;;;;;;;10.56;61.37;96775.34;3501002;40;20473;-71
2021/05/27 07:36:28;;;;;;;3.17;1.20;;;;;;;10.99;60.63;96764.63;3495039;40;20568;-73
2021/05/27 07:38:58;;;;;;;13.03;1.43;;;;;;;11.60;59.89;96763.97;3497431;41;20451;-72
2021/05/27 07:41:32;;;;;;;3.13;1.20;;;;;;;11.58;57.89;96766.69;3490842;40;20734;-73
2021/05/27 07:44:06;;;;;;;2.50;1.17;;;;;;;10.54;60.50;96765.94;3494249;41;20890;-71
2021/05/27 07:46:41;;;;;;;4.33;1.13;;;;;;;11.27;59.78;96766.22;3496242;40;20503;-71
2021/05/27 07:49:15;;;;;;;4.57;0.93;;;;;;;11.73;57.43;96763.94;3498407;41;20475;-71
2021/05/27 07:51:47;;;;;;;2.70;1.30;;;;;;;11.75;56.77;96764.69;3499576;40;20468;-71
2021/05/27 07:54:16;;;;;;;4.00;1.20;;;;;;;12.07;56.19;96772.91;3502000;40;20519;-71
2021/05/27 07:56:46;;;;;;;3.00;1.20;;;;;;;12.29;54.06;96766.09;3497557;40;20534;-72
2021/05/27 07:59:19;;;;;;;1.80;1.20;;;;;;;12.85;55.24;96767.13;3501001;40;20481;-70
2021/05/27 08:01:55;;;;;;;2.80;1.57;;;;;;;13.02;54.08;96765.03;3500027;40;20769;-72
2021/05/27 08:04:28;;;;;;;6.10;1.87;;;;;;;13.15;54.62;96765.78;3500945;40;20465;-72
2021/05/27 08:06:56;;;;;;;1.50;1.07;;;;;;;12.08;54.03;96764.09;3489707;40;20495;-71
2021/05/27 08:09:23;;;;;;;1.20;1.00;;;;;;;11.96;56.45;96767.59;3485289;41;21354;-73
2021/05/27 08:11:53;;;;;;;11.83;1.13;;;;;;;12.73;54.33;96769.88;3486095;40;20920;-73
2021/05/27 08:14:24;;;;;;;5.87;0.97;;;;;;;12.56;54.08;96777.19;3484442;41;20739;-74
2021/05/27 08:16:51;;;;;;;2.40;1.00;;;;;;;12.67;54.72;96771.16;3492105;40;20461;-73
2021/05/27 08:19:18;;;;;;;1.60;0.90;;;;;;;13.09;53.18;96771.50;3491661;41;20794;-73
2021/05/27 08:21:47;;;;;;;6.23;1.20;;;;;;;13.35;52.09;96776.56;3492553;40;20756;-74
2021/05/27 08:24:15;;;;;;;1.40;1.00;;;;;;;12.58;53.03;96770.03;3487651;40;20493;-72
2021/05/27 08:26:43;;;;;;;2.13;1.10;;;;;;;12.55;53.67;96770.28;3487172;40;20504;-74
2021/05/27 08:29:11;;;;;;;3.63;1.00;;;;;;;12.62;53.67;96768.88;3487018;41;20799;-73
2021/05/27 08:31:40;;;;;;;4.70;1.00;;;;;;;13.16;53.44;96764.81;3487830;40;20471;-73
2021/05/27 08:34:08;;;;;;;9.57;1.07;;;;;;;13.08;51.91;96769.81;3486962;41;21374;-70
2021/05/27 08:36:35;;;;;;;4.63;1.43;;;;;;;12.99;52.17;96765.25;3488780;40;20487;-71
2021/05/27 08:39:05;;;;;;;1.73;0.93;;;;;;;13.09;50.83;96771.50;3487978;40;20913;-71
2021/05/27 08:41:33;;;;;;;5.00;0.83;;;;;;;12.46;51.62;96771.78;3489006;40;20967;-72
2021/05/27 08:44:02;;;;;;;5.60;0.90;;;;;;;13.03;50.85;96771.97;3490240;41;20453;-70
2021/05/27 08:46:30;;;;;;;4.90;1.30;;;;;;;13.16;52.36;96764.81;3488819;40;20981;-71
2021/05/27 08:48:58;;;;;;;3.10;1.00;;;;;;;13.78;49.45;96739.00;3488321;40;20468;-71
2021/05/27 08:51:25;;;;;;;5.07;2.07;;;;;;;14.01;48.69;96769.63;3489300;40;20465;-71
2021/05/27 08:53:53;;;;;;;2.60;1.13;;;;;;;13.70;48.46;96773.84;3488992;40;20485;-71
2021/05/27 08:56:21;;;;;;;5.90;0.90;;;;;;;13.36;49.28;96779.09;3488070;40;20576;-71
2021/05/27 08:58:49;;;;;;;2.27;0.90;;;;;;;13.30;49.88;96784.81;3490293;41;20531;-72
2021/05/27 09:01:20;;;;;;;3.47;0.70;;;;;;;13.48;49.95;96777.31;3486677;40;20462;-70
2021/05/27 09:03:48;;;;;;;2.50;0.90;;;;;;;13.81;49.82;96781.72;3487330;41;20937;-70
2021/05/27 09:06:16;;;;;;;4.30;1.10;;;;;;;13.67;51.62;96789.03;3487496;40;20848;-71
2021/05/27 09:08:44;;;;;;;4.27;1.20;;;;;;;13.34;50.64;96791.53;3490141;40;20469;-70
2021/05/27 09:11:14;;;;;;;4.73;0.97;;;;;;;13.32;50.96;96785.53;3488460;40;20485;-71
2021/05/27 09:13:57;;;;;;;1.03;0.80;;;;;;;13.76;50.00;96780.41;3489236;41;20973;-70
2021/05/27 09:16:26;;;;;;;37.97;18.67;;;;;;;14.33;48.37;96789.03;3488000;40;20482;-71
2021/05/27 09:18:54;;;;;;;3.27;1.20;;;;;;;14.55;46.85;96782.88;3486699;41;20473;-71
2021/05/27 09:21:36;;;;;;;2.30;1.23;;;;;;;14.41;47.60;96787.47;3482074;40;20794;-71
2021/05/27 09:24:04;;;;;;;6.80;1.77;;;;;;;13.93;48.28;96789.63;3488621;41;20841;-71
2021/05/27 09:26:32;;;;;;;1.50;0.90;;;;;;;14.14;48.80;96801.06;3487378;40;20805;-71
2021/05/27 09:29:12;;;;;;;2.60;0.90;;;;;;;14.79;46.67;96795.88;3489047;40;20721;-72
2021/05/27 09:31:55;;;;;;;1.10;0.80;;;;;;;14.35;46.87;96798.50;3487514;40;20713;-72
2021/05/27 09:34:40;;;;;;;5.33;1.43;;;;;;;14.41;49.53;96792.75;3487482;41;20578;-71
2021/05/27 09:37:18;;;;;;;9.57;1.60;;;;;;;14.33;47.71;96795.16;3485202;40;20907;-72
2021/05/27 09:39:47;;;;;;;4.00;1.20;;;;;;;14.65;47.85;96797.00;3487533;41;20473;-71
2021/05/27 09:42:15;;;;;;;3.47;1.27;;;;;;;14.74;47.95;96793.63;3487058;40;20846;-70
2021/05/27 09:44:44;;;;;;;2.60;1.07;;;;;;;15.27;45.11;96794.50;3480716;41;20890;-71
2021/05/27 09:47:13;;;;;;;8.03;1.40;;;;;;;15.82;44.41;96790.66;3485742;40;21175;-70
2021/05/27 09:49:56;;;;;;;1.03;0.80;;;;;;;14.88;44.65;96791.63;3485012;41;20749;-70
2021/05/27 09:52:26;;;;;;;10.53;1.00;;;;;;;14.42;47.39;96799.66;3485924;40;20913;-72
2021/05/27 09:54:55;;;;;;;1.00;0.80;;;;;;;13.55;49.33;96789.03;3487738;40;21019;-71
2021/05/27 09:57:23;;;;;;;2.97;1.27;;;;;;;13.99;48.53;96797.84;3486335;40;21104;-69
2021/05/27 09:59:56;;;;;;;1.93;0.80;;;;;;;14.00;47.87;96802.16;3488437;41;21114;-73
2021/05/27 10:02:24;;;;;;;6.23;1.87;;;;;;;13.62;49.58;96787.63;3486991;40;20891;-71
2021/05/27 10:05:07;;;;;;;3.37;1.10;;;;;;;13.90;48.39;96801.22;3488169;40;20495;-70
2021/05/27 10:07:40;;;;;;;4.60;1.10;;;;;;;13.96;49.55;96807.81;3486689;40;20469;-70
2021/05/27 10:10:27;;;;;;;2.90;1.47;;;;;;;14.54;49.19;96797.00;3486997;40;20492;-71
2021/05/27 10:12:55;;;;;;;3.40;1.00;;;;;;;14.34;49.80;96803.91;3486591;41;20493;-71
2021/05/27 10:15:25;;;;;;;2.30;0.77;;;;;;;14.05;50.75;96807.06;3488180;40;20447;-70
2021/05/27 10:17:53;;;;;;;2.63;1.13;;;;;;;13.63;50.77;96806.84;3485458;41;20985;-70
2021/05/27 10:20:24;;;;;;;1.20;0.90;;;;;;;13.79;50.10;96795.97;3488617;41;20467;-70
2021/05/27 10:22:56;;;;;;;4.90;0.90;;;;;;;14.53;49.28;96812.00;3487187;40;20471;-71
2021/05/27 10:25:25;;;;;;;4.43;1.17;;;;;;;14.62;47.13;96798.09;3487403;40;20977;-72
2021/05/27 10:27:55;;;;;;;2.10;1.20;;;;;;;14.09;48.36;96803.22;3487240;40;20927;-72
2021/05/27 10:30:24;;;;;;;5.07;1.47;;;;;;;14.94;48.44;96805.16;3486438;41;21013;-71
2021/05/27 10:32:58;;;;;;;3.93;1.90;;;;;;;15.37;47.64;96801.53;3490727;41;20483;-71
2021/05/27 10:35:45;;;;;;;2.17;0.83;;;;;;;15.29;47.67;96804.00;3486465;41;20484;-72
2021/05/27 10:38:13;;;;;;;2.13;1.10;;;;;;;15.24;46.79;96800.91;3485999;41;20463;-70
2021/05/27 10:40:42;;;;;;;4.30;1.00;;;;;;;15.71;46.51;96813.66;3485607;40;20484;-71
2021/05/27 10:43:19;;;;;;;3.87;1.80;;;;;;;15.46;46.46;96810.47;3486126;41;20463;-72
2021/05/27 10:46:05;;;;;;;2.03;0.90;;;;;;;15.03;46.43;96804.38;3487664;40;20471;-72
2021/05/27 10:48:45;;;;;;;5.50;1.10;;;;;;;15.29;46.59;96803.13;3488311;40;20868;-70
2021/05/27 10:51:22;;;;;;;2.10;1.00;;;;;;;15.38;45.83;96807.63;3486047;40;20799;-73
2021/05/27 10:53:59;;;;;;;2.80;1.20;;;;;;;15.20;45.04;96795.03;3488174;41;20493;-73
2021/05/27 10:56:43;;;;;;;1.50;0.90;;;;;;;15.54;45.21;96797.47;3487064;40;20864;-71
2021/05/27 10:59:13;;;;;;;5.03;1.23;;;;;;;15.70;44.42;96789.06;3487037;41;20526;-72
2021/05/27 11:02:06;;;;;;;2.00;0.90;;;;;;;15.06;47.64;96790.09;3486837;40;20770;-69
2021/05/27 11:04:39;;;;;;;5.33;0.97;;;;;;;14.68;46.84;96793.28;3485872;41;20505;-71
2021/05/27 11:07:35;;;;;;;4.17;1.20;;;;;;;15.06;45.99;96792.75;3487229;40;20520;-70
2021/05/27 11:10:03;;;;;;;2.17;1.13;;;;;;;16.67;43.03;96785.81;3488059;41;20445;-72
2021/05/27 11:12:35;;;;;;;1.33;0.90;;;;;;;16.10;42.77;96784.78;3486932;40;20469;-72
2021/05/27 11:15:16;;;;;;;1.50;1.00;;;;;;;16.75;43.11;96793.88;3486633;40;20741;-72
2021/05/27 11:18:06;;;;;;;2.03;0.87;;;;;;;16.33;43.62;96791.50;3487187;40;20861;-71
2021/05/27 11:20:35;;;;;;;1.27;0.73;;;;;;;15.96;44.39;96797.38;3486507;40;20493;-72
2021/05/27 11:23:21;;;;;;;7.97;1.30;;;;;;;16.03;44.84;96800.31;3487285;41;20469;-70
2021/05/27 11:25:48;;;;;;;1.60;0.90;;;;;;;15.59;45.07;96805.81;3485506;40;20469;-72
2021/05/27 11:28:33;;;;;;;1.47;0.80;;;;;;;15.80;44.51;96802.34;3487410;40;20477;-71
2021/05/27 11:31:03;;;;;;;6.53;1.50;;;;;;;15.62;45.59;96800.28;3481301;40;20892;-72
2021/05/27 11:33:39;;;;;;;40.00;2.60;;;;;;;16.29;45.24;96790.09;3486977;40;20549;-71
2021/05/27 11:36:18;;;;;;;4.10;1.37;;;;;;;15.87;44.26;96790.25;3484680;40;20785;-72
2021/05/27 11:38:47;;;;;;;5.37;1.17;;;;;;;16.36;44.44;96801.78;3486433;40;20481;-72
2021/05/27 11:41:18;;;;;;;3.33;0.90;;;;;;;16.24;43.22;96800.22;3486355;40;21288;-71
2021/05/27 11:43:55;;;;;;;1.20;0.80;;;;;;;15.81;44.89;96794.25;3487834;40;20493;-70
2021/05/27 11:46:28;;;;;;;1.63;1.10;;;;;;;16.54;44.91;96793.16;3486569;40;20552;-72
2021/05/27 11:49:00;;;;;;;2.30;0.80;;;;;;;15.99;45.23;96802.41;3486906;41;20779;-70
2021/05/27 11:51:34;;;;;;;2.80;0.90;;;;;;;15.76;45.67;96790.38;3486911;40;20468;-72
2021/05/27 11:54:05;;;;;;;35.83;17.73;;;;;;;15.61;45.70;96803.03;3488260;41;20495;-72
2021/05/27 11:56:42;;;;;;;3.57;1.20;;;;;;;16.15;44.42;96791.31;3488460;40;20782;-72
2021/05/27 11:59:13;;;;;;;2.03;0.83;;;;;;;15.99;43.85;96789.19;3488585;41;21120;-71